Time;durP1;ratioP1;P1;durP2;ratioP2;P2;SDS_P1;SDS_P2;PMS_P1;PMS_P2;Temp;Humidity;BMP_temperature;BMP_pressure;BME280_temperature;BME280_humidity;BME280_pressure;Samples;Min_cycle;Max_cycle;Signal;HPM_P1;HPM_P2
2023/01/10 00:01:57;;;;;;;15.13;3.63;;;8.30;68.50;;;;;;5018136;28;20100;-92
2023/01/10 00:04:42;;;;;;;11.15;4.10;;;8.20;67.80;;;;;;5029031;28;20057;-92
2023/01/10 00:07:28;;;;;;;14.50;3.03;;;8.20;68.40;;;;;;5023672;28;20045;-92
2023/01/10 00:10:13;;;;;;;17.73;5.32;;;8.20;68.00;;;;;;5024617;28;20095;-92
2023/01/10 00:16:07;;;;;;;13.45;3.08;;;8.10;67.80;;;;;;5012460;28;20044;-92
2023/01/10 00:18:52;;;;;;;22.20;3.40;;;8.10;67.90;;;;;;5027027;28;20064;-93
2023/01/10 00:21:38;;;;;;;15.00;3.03;;;8.00;67.70;;;;;;5033079;28;20598;-91
2023/01/10 00:24:23;;;;;;;12.02;3.33;;;8.00;67.80;;;;;;5012733;28;20065;-94
2023/01/10 00:27:09;;;;;;;13.95;3.25;;;7.90;67.70;;;;;;5025096;28;20123;-88
2023/01/10 00:29:54;;;;;;;13.30;2.65;;;7.90;67.70;;;;;;5021029;28;20045;-88
2023/01/10 00:32:43;;;;;;;14.15;3.58;;;7.90;67.80;;;;;;5026471;28;20045;-88
2023/01/10 00:35:28;;;;;;;12.52;3.45;;;7.80;67.70;;;;;;5024356;28;20033;-91
2023/01/10 00:38:13;;;;;;;13.70;3.42;;;7.80;67.80;;;;;;5029429;28;20049;-90
2023/01/10 00:40:58;;;;;;;15.55;3.60;;;7.80;67.80;;;;;;5029901;28;20036;-91
2023/01/10 00:43:58;;;;;;;11.52;3.00;;;7.80;67.80;;;;;;5019875;28;20091;-91
2023/01/10 00:46:42;;;;;;;16.35;3.75;;;7.80;67.80;;;;;;5014577;28;20089;-89
2023/01/10 00:49:27;;;;;;;17.23;2.47;;;7.70;67.60;;;;;;5024024;28;20105;-88
2023/01/10 00:52:12;;;;;;;11.23;3.38;;;7.70;67.70;;;;;;5017582;28;20053;-92
2023/01/10 00:54:56;;;;;;;15.38;5.18;;;7.70;67.70;;;;;;5009590;28;20100;-93
2023/01/10 00:57:41;;;;;;;11.75;3.60;;;7.70;67.70;;;;;;5019592;28;20045;-90
2023/01/10 01:00:26;;;;;;;16.95;4.55;;;7.70;67.70;;;;;;5008313;28;20041;-90
2023/01/10 01:03:11;;;;;;;11.35;2.45;;;7.80;67.90;;;;;;5016951;28;20053;-89
2023/01/10 01:05:55;;;;;;;14.43;4.45;;;7.80;67.90;;;;;;5021078;28;20037;-92
2023/01/10 01:08:40;;;;;;;12.65;3.53;;;7.80;67.90;;;;;;5009226;28;20084;-92
2023/01/10 01:11:25;;;;;;;21.15;4.28;;;7.80;67.80;;;;;;5020542;28;20076;-91
2023/01/10 01:14:10;;;;;;;14.23;3.25;;;7.80;67.80;;;;;;5035022;28;20091;-93
2023/01/10 01:16:55;;;;;;;13.55;3.55;;;7.80;67.80;;;;;;5024529;28;20201;-91
2023/01/10 01:19:39;;;;;;;13.30;3.70;;;7.80;67.80;;;;;;5022933;28;20037;-91
2023/01/10 01:22:24;;;;;;;9.02;2.50;;;7.80;67.80;;;;;;5024806;28;20077;-92
2023/01/10 01:25:08;;;;;;;13.50;3.45;;;7.90;68.00;;;;;;5030132;28;20052;-88
2023/01/10 01:27:53;;;;;;;13.70;3.53;;;7.90;68.00;;;;;;5034155;28;20421;-88
2023/01/10 01:30:39;;;;;;;14.20;3.95;;;7.90;68.00;;;;;;5042163;28;20059;-89
2023/01/10 01:33:23;;;;;;;16.02;3.83;;;7.90;68.00;;;;;;5032043;28;20036;-90
2023/01/10 01:36:10;;;;;;;14.70;3.40;;;7.90;68.00;;;;;;5036744;28;20708;-91
2023/01/10 01:38:54;;;;;;;14.43;2.90;;;7.90;68.00;;;;;;5032445;28;20093;-91
2023/01/10 01:41:57;;;;;;;15.25;3.58;;;7.90;68.00;;;;;;5024511;28;20049;-92
2023/01/10 01:44:42;;;;;;;14.60;3.03;;;7.90;68.00;;;;;;5032878;28;20041;-90
2023/01/10 01:47:26;;;;;;;7.95;2.30;;;7.90;68.00;;;;;;5015251;28;20038;-90
2023/01/10 01:50:39;;;;;;;14.73;3.75;;;7.90;68.00;;;;;;5029607;28;20060;-92
2023/01/10 01:53:33;;;;;;;9.90;2.83;;;7.90;68.00;;;;;;5021561;28;20064;-90
2023/01/10 01:56:23;;;;;;;;;;;7.90;68.00;;;;;;5018106;28;20600;-90
2023/01/10 01:59:24;;;;;;;11.05;2.58;;;7.90;67.90;;;;;;5028940;28;19919;-90
2023/01/10 02:02:19;;;;;;;12.90;3.78;;;7.90;67.80;;;;;;5018829;28;20056;-90
2023/01/10 02:05:07;;;;;;;8.38;3.00;;;7.90;67.80;;;;;;5025047;28;20115;-90
2023/01/10 02:07:56;;;;;;;11.82;3.30;;;7.90;67.80;;;;;;5020329;28;20113;-90
2023/01/10 02:11:08;;;;;;;13.90;3.78;;;7.90;67.80;;;;;;5013133;28;20416;-89
2023/01/10 02:13:53;;;;;;;11.02;2.88;;;8.00;68.00;;;;;;5009398;28;20102;-89
2023/01/10 02:16:37;;;;;;;9.05;2.50;;;8.00;68.00;;;;;;5022085;28;20060;-90
2023/01/10 02:19:31;;;;;;;12.68;2.72;;;7.90;67.80;;;;;;5010079;28;21501;-88
2023/01/10 02:22:41;;;;;;;10.43;2.50;;;8.00;68.00;;;;;;5016751;28;20087;-88
2023/01/10 02:26:04;;;;;;;8.32;2.15;;;8.00;68.00;;;;;;5009385;28;20527;-89
2023/01/10 02:29:00;;;;;;;13.15;2.78;;;8.00;68.00;;;;;;5005366;28;20044;-88
2023/01/10 02:32:19;;;;;;;7.65;3.08;;;8.00;67.90;;;;;;5010236;28;20044;-88
2023/01/10 02:35:26;;;;;;;15.13;3.10;;;8.00;68.00;;;;;;5006895;28;20096;-89
2023/01/10 02:38:36;;;;;;;14.68;3.25;;;8.10;68.00;;;;;;5006884;28;20045;-88
2023/01/10 02:41:32;;;;;;;10.07;2.47;;;8.10;68.00;;;;;;5014994;28;20032;-88
2023/01/10 02:44:49;;;;;;;11.02;3.55;;;8.10;68.00;;;;;;5009971;28;20037;-89
2023/01/10 02:47:39;;;;;;;9.63;2.58;;;8.10;68.00;;;;;;5004951;28;20048;-89
2023/01/10 02:50:48;;;;;;;13.95;2.95;;;8.10;68.00;;;;;;5020375;28;20488;-90
2023/01/10 02:53:50;;;;;;;10.88;3.53;;;8.10;68.00;;;;;;5017098;28;20103;-89
2023/01/10 02:57:05;;;;;;;12.27;3.22;;;8.10;68.00;;;;;;5007032;28;20045;-87
2023/01/10 03:00:21;;;;;;;17.65;3.78;;;8.10;68.00;;;;;;4998715;28;20072;-90
2023/01/10 03:03:32;;;;;;;10.98;2.65;;;8.10;67.90;;;;;;5012404;28;20069;-89
2023/01/10 03:06:32;;;;;;;12.93;3.42;;;8.10;67.90;;;;;;5007092;28;20092;-89
2023/01/10 03:09:17;;;;;;;9.35;2.88;;;8.20;68.10;;;;;;5013118;28;20107;-88
2023/01/10 03:12:11;;;;;;;11.52;2.80;;;8.20;68.10;;;;;;5015964;28;20053;-86
2023/01/10 03:14:58;;;;;;;13.57;2.72;;;8.20;68.10;;;;;;5013292;28;20102;-90
2023/01/10 03:17:48;;;;;;;16.75;3.35;;;8.20;68.10;;;;;;5012489;28;20071;-90
2023/01/10 03:20:36;;;;;;;12.63;3.15;;;8.20;68.10;;;;;;5005182;28;20093;-90
2023/01/10 03:23:21;;;;;;;12.45;3.33;;;8.20;68.10;;;;;;5014420;28;20048;-89
2023/01/10 03:26:09;;;;;;;10.27;2.40;;;8.30;68.30;;;;;;4997510;28;20414;-89
2023/01/10 03:29:02;;;;;;;15.98;3.15;;;8.30;68.30;;;;;;5022646;28;20076;-90
2023/01/10 03:31:54;;;;;;;12.40;2.90;;;8.30;68.30;;;;;;5012314;28;20089;-91
2023/01/10 03:34:39;;;;;;;11.20;3.78;;;8.30;68.20;;;;;;5013459;28;20037;-91
2023/01/10 03:37:47;;;;;;;8.32;2.28;;;8.30;68.20;;;;;;5007782;28;20048;-92
2023/01/10 03:40:46;;;;;;;8.88;3.30;;;8.30;68.20;;;;;;5003275;28;20402;-91
2023/01/10 03:47:20;;;;;;;8.20;2.10;;;8.30;68.20;;;;;;5006598;28;20072;-91
2023/01/10 03:50:16;;;;;;;13.30;3.40;;;8.40;68.30;;;;;;5002107;28;20218;-90
2023/01/10 03:53:00;;;;;;;17.83;2.95;;;8.40;68.30;;;;;;5020980;28;20119;-92
2023/01/10 03:55:46;;;;;;;14.13;3.67;;;8.40;68.30;;;;;;4998934;28;20104;-89
2023/01/10 03:58:31;;;;;;;10.05;2.38;;;8.40;68.30;;;;;;5012418;28;20683;-91
2023/01/10 04:01:16;;;;;;;13.57;3.17;;;8.40;68.30;;;;;;5000786;28;20114;-89
2023/01/10 04:04:00;;;;;;;15.52;3.35;;;8.40;68.30;;;;;;5007211;28;20504;-90
2023/01/10 04:06:45;;;;;;;10.20;2.40;;;8.40;68.30;;;;;;5012208;28;20751;-91
2023/01/10 04:09:30;;;;;;;14.27;2.67;;;8.40;68.20;;;;;;5000453;28;20529;-90
2023/01/10 04:12:14;;;;;;;13.27;2.83;;;8.40;68.20;;;;;;5021378;28;20052;-91
2023/01/10 04:15:00;;;;;;;16.30;3.15;;;8.40;68.20;;;;;;5010090;28;20084;-89
2023/01/10 04:17:47;;;;;;;14.80;4.28;;;8.50;68.40;;;;;;5010174;28;20053;-89
2023/01/10 04:20:31;;;;;;;13.18;2.70;;;8.50;68.30;;;;;;5012383;28;20405;-89
2023/01/10 04:23:16;;;;;;;17.80;5.03;;;8.50;68.30;;;;;;5012022;28;20044;-91
2023/01/10 04:26:01;;;;;;;14.70;2.63;;;8.50;68.30;;;;;;5010845;28;20100;-93
2023/01/10 04:28:46;;;;;;;10.88;3.45;;;8.60;68.50;;;;;;5011616;28;20073;-86
2023/01/10 04:31:31;;;;;;;12.65;2.83;;;8.60;68.40;;;;;;5005145;28;20076;-86
2023/01/10 04:34:16;;;;;;;18.15;3.38;;;8.60;68.40;;;;;;5002874;28;20100;-86
2023/01/10 04:37:02;;;;;;;11.10;2.58;;;8.60;68.40;;;;;;5004643;28;20044;-88
2023/01/10 04:39:46;;;;;;;17.00;3.58;;;8.60;68.40;;;;;;5005122;28;20068;-88
2023/01/10 04:42:31;;;;;;;15.73;4.60;;;8.60;68.40;;;;;;5017003;28;20075;-87
2023/01/10 04:45:19;;;;;;;13.52;2.42;;;8.60;68.40;;;;;;5011764;28;20131;-87
2023/01/10 04:48:05;;;;;;;12.68;2.95;;;8.70;68.60;;;;;;5013844;28;20081;-88
2023/01/10 04:50:50;;;;;;;14.43;2.67;;;8.60;68.50;;;;;;5013075;28;20137;-88
2023/01/10 04:53:35;;;;;;;14.68;2.67;;;8.70;68.70;;;;;;5003959;28;20104;-85
2023/01/10 04:56:21;;;;;;;7.50;2.28;;;8.70;68.70;;;;;;4997600;28;20053;-88
2023/01/10 04:59:08;;;;;;;9.20;2.33;;;8.70;68.70;;;;;;5011996;28;20053;-86
2023/01/10 05:01:52;;;;;;;13.52;4.55;;;8.70;68.80;;;;;;5020479;28;20703;-87
2023/01/10 05:04:37;;;;;;;17.45;4.03;;;8.70;68.80;;;;;;5005937;28;20040;-87
2023/01/10 05:07:21;;;;;;;14.68;2.80;;;8.70;68.90;;;;;;5013459;28;20121;-88
2023/01/10 05:10:07;;;;;;;12.20;2.55;;;8.70;68.90;;;;;;4994737;28;20891;-89
2023/01/10 05:12:52;;;;;;;12.15;3.58;;;8.70;68.90;;;;;;5009304;28;20115;-90
2023/01/10 05:15:38;;;;;;;7.97;2.30;;;8.70;69.00;;;;;;5012122;28;20041;-88
2023/01/10 05:18:28;;;;;;;9.98;3.20;;;8.70;69.00;;;;;;5013081;28;20056;-87
2023/01/10 05:21:14;;;;;;;12.10;2.67;;;8.80;69.20;;;;;;5013991;28;20037;-89
2023/01/10 05:23:58;;;;;;;10.10;2.75;;;8.80;69.20;;;;;;5010258;28;20048;-87
2023/01/10 05:26:43;;;;;;;12.40;2.80;;;8.80;69.20;;;;;;5009356;28;20484;-88
2023/01/10 05:29:29;;;;;;;7.70;2.53;;;8.80;69.20;;;;;;5019007;28;20052;-88
2023/01/10 05:32:14;;;;;;;13.02;4.07;;;8.80;69.20;;;;;;5004243;28;20086;-87
2023/01/10 05:34:58;;;;;;;9.20;2.22;;;8.80;69.30;;;;;;5009697;28;20028;-87
2023/01/10 05:37:44;;;;;;;11.45;2.63;;;8.80;69.30;;;;;;4999489;28;20036;-88
2023/01/10 05:40:29;;;;;;;10.52;2.28;;;8.90;69.50;;;;;;5012555;28;20033;-87
2023/01/10 05:43:13;;;;;;;15.50;2.47;;;8.90;69.50;;;;;;5009044;28;20056;-87
2023/01/10 05:45:58;;;;;;;11.93;2.45;;;8.90;69.60;;;;;;5008965;28;20085;-85
2023/01/10 05:48:43;;;;;;;16.15;2.50;;;8.90;69.60;;;;;;5023589;28;20040;-86
2023/01/10 05:51:27;;;;;;;8.02;1.88;;;8.90;69.60;;;;;;5012368;28;20061;-87
2023/01/10 05:54:12;;;;;;;16.00;2.50;;;8.90;69.70;;;;;;5008754;28;20192;-85
2023/01/10 05:56:57;;;;;;;10.77;2.17;;;9.00;69.90;;;;;;4999559;28;20045;-87
2023/01/10 05:59:41;;;;;;;9.10;2.70;;;9.00;69.90;;;;;;5017151;28;20053;-87
2023/01/10 06:02:26;;;;;;;11.13;2.38;;;9.00;70.00;;;;;;5007926;28;20115;-87
2023/01/10 06:05:11;;;;;;;9.93;2.25;;;9.00;70.00;;;;;;5001924;28;20056;-86
2023/01/10 06:07:55;;;;;;;7.25;2.10;;;9.00;70.00;;;;;;5011538;28;20511;-86
2023/01/10 06:10:40;;;;;;;9.63;2.33;;;9.10;70.20;;;;;;5000091;28;20089;-86
2023/01/10 06:13:24;;;;;;;8.43;2.38;;;9.10;70.20;;;;;;5008255;28;20045;-86
2023/01/10 06:16:09;;;;;;;11.25;3.80;;;9.10;70.20;;;;;;5010169;28;20032;-89
2023/01/10 06:18:54;;;;;;;8.20;2.03;;;9.10;70.20;;;;;;5014686;28;20047;-87
2023/01/10 06:21:38;;;;;;;10.05;2.17;;;9.10;70.20;;;;;;5005784;28;20128;-86
2023/01/10 06:24:23;;;;;;;5.30;1.55;;;9.10;70.30;;;;;;5016973;28;20040;-86
2023/01/10 06:27:08;;;;;;;10.45;3.13;;;9.20;70.50;;;;;;5007789;28;20053;-82
2023/01/10 06:29:53;;;;;;;7.63;2.42;;;9.20;70.50;;;;;;5009590;28;20072;-81
2023/01/10 06:32:37;;;;;;;3.90;1.58;;;9.30;70.70;;;;;;5010419;28;20053;-80
2023/01/10 06:35:22;;;;;;;8.43;1.70;;;9.30;70.70;;;;;;5011807;28;20153;-82
2023/01/10 06:38:06;;;;;;;6.93;2.00;;;9.30;70.70;;;;;;5006236;28;20103;-82
2023/01/10 06:40:51;;;;;;;6.45;1.77;;;9.30;70.80;;;;;;5007183;28;20172;-81
2023/01/10 06:43:36;;;;;;;6.82;1.42;;;9.30;70.80;;;;;;4996674;28;20083;-81
2023/01/10 06:46:20;;;;;;;5.45;1.20;;;9.30;70.90;;;;;;5013505;28;20096;-82
2023/01/10 06:49:05;;;;;;;6.30;1.70;;;9.30;70.90;;;;;;5004594;28;20084;-83
2023/01/10 06:51:50;;;;;;;4.07;1.00;;;9.40;71.10;;;;;;5007155;28;20057;-81
2023/01/10 06:54:34;;;;;;;4.88;1.23;;;9.30;71.00;;;;;;5007018;28;20171;-82
2023/01/10 06:57:19;;;;;;;3.25;1.33;;;9.40;71.20;;;;;;4999144;28;20096;-81
2023/01/10 07:00:06;;;;;;;3.08;1.25;;;9.40;71.20;;;;;;4991597;28;20069;-83
2023/01/10 07:02:50;;;;;;;5.10;1.10;;;9.40;71.20;;;;;;5017129;28;20065;-83
2023/01/10 07:05:35;;;;;;;3.05;1.10;;;9.40;71.30;;;;;;5007513;28;20437;-84
2023/01/10 07:08:20;;;;;;;3.35;1.30;;;9.50;71.50;;;;;;4999921;28;20067;-84
2023/01/10 07:11:05;;;;;;;3.95;1.20;;;9.50;71.60;;;;;;5013358;28;20380;-82
2023/01/10 07:13:52;;;;;;;2.95;1.05;;;9.50;71.60;;;;;;5006025;28;20064;-83
2023/01/10 07:16:36;;;;;;;2.70;1.00;;;9.50;71.60;;;;;;5002189;28;20528;-84
2023/01/10 07:19:21;;;;;;;1.85;1.00;;;9.60;71.80;;;;;;5009826;28;20310;-80
2023/01/10 07:22:06;;;;;;;4.57;1.13;;;9.60;71.80;;;;;;5013830;28;20044;-82
2023/01/10 07:24:50;;;;;;;5.32;1.05;;;9.60;71.80;;;;;;4995370;28;20143;-83
2023/01/10 07:27:38;;;;;;;2.95;1.17;;;9.60;71.90;;;;;;5009094;28;20096;-93
2023/01/10 07:30:24;;;;;;;2.00;0.82;;;9.70;72.10;;;;;;5024197;28;20064;-89
2023/01/10 07:33:09;;;;;;;5.47;1.38;;;9.80;72.50;;;;;;5020379;28;20044;-82
2023/01/10 07:35:53;;;;;;;3.70;1.05;;;9.80;72.60;;;;;;5008793;28;20037;-82
2023/01/10 07:38:38;;;;;;;4.35;1.17;;;9.90;72.80;;;;;;5014228;28;20051;-81
2023/01/10 07:41:23;;;;;;;2.40;0.93;;;9.90;72.90;;;;;;5010561;28;20056;-83
2023/01/10 07:44:08;;;;;;;4.00;0.90;;;10.00;73.10;;;;;;5010556;28;20072;-82
2023/01/10 07:46:53;;;;;;;3.13;1.00;;;10.00;73.20;;;;;;5008373;28;20328;-81
2023/01/10 07:49:37;;;;;;;1.30;0.70;;;10.00;73.20;;;;;;5004458;28;20136;-82
2023/01/10 07:52:22;;;;;;;1.67;0.90;;;10.00;73.30;;;;;;5012110;28;20573;-83
2023/01/10 07:55:08;;;;;;;1.92;0.68;;;10.00;73.30;;;;;;5007937;28;20055;-83
2023/01/10 07:57:53;;;;;;;1.23;0.60;;;10.00;73.40;;;;;;5015846;28;20052;-81
2023/01/10 08:00:37;;;;;;;1.08;0.50;;;10.10;73.60;;;;;;5006562;28;20064;-84
2023/01/10 08:03:23;;;;;;;0.90;0.60;;;10.10;74.10;;;;;;4994616;28;20065;-82
2023/01/10 08:06:10;;;;;;;0.40;0.40;;;10.10;74.20;;;;;;4991961;28;20084;-82
2023/01/10 08:08:54;;;;;;;0.95;0.52;;;10.10;73.70;;;;;;5020167;28;20155;-87
2023/01/10 08:11:38;;;;;;;2.83;0.70;;;10.10;73.60;;;;;;4989459;28;20057;-88
2023/01/10 08:14:24;;;;;;;0.65;0.40;;;10.20;73.80;;;;;;5002450;28;20049;-91
2023/01/10 08:17:09;;;;;;;1.10;0.63;;;10.20;73.80;;;;;;5008751;28;20044;-91
2023/01/10 08:19:53;;;;;;;0.95;0.50;;;10.20;73.80;;;;;;5016510;28;20378;-90
2023/01/10 08:22:39;;;;;;;2.53;0.63;;;10.20;73.80;;;;;;5011541;28;20033;-88
2023/01/10 08:25:25;;;;;;;1.30;0.55;;;10.20;73.80;;;;;;5023042;28;20037;-87
2023/01/10 08:28:10;;;;;;;0.75;0.38;;;10.30;74.00;;;;;;5005929;28;20040;-82
2023/01/10 08:30:56;;;;;;;3.20;0.90;;;10.30;74.00;;;;;;5006131;28;20053;-82
2023/01/10 08:33:42;;;;;;;0.68;0.40;;;10.30;74.00;;;;;;5022217;28;20040;-92
2023/01/10 08:36:28;;;;;;;0.65;0.40;;;10.30;74.00;;;;;;5017178;28;20064;-88
2023/01/10 08:39:13;;;;;;;1.45;0.50;;;10.30;74.10;;;;;;5006586;28;20053;-87
2023/01/10 08:41:57;;;;;;;1.02;0.50;;;10.30;74.10;;;;;;5023658;28;20393;-88
2023/01/10 08:44:42;;;;;;;0.70;0.70;;;10.30;74.00;;;;;;5017505;28;20226;-90
2023/01/10 08:47:27;;;;;;;2.22;0.77;;;10.30;74.00;;;;;;5017295;28;20112;-88
2023/01/10 08:50:13;;;;;;;2.15;0.47;;;10.30;74.00;;;;;;5007752;28;20425;-89
2023/01/10 08:53:00;;;;;;;0.32;0.30;;;10.30;74.00;;;;;;4999132;28;20072;-88
2023/01/10 08:55:44;;;;;;;0.68;0.47;;;10.40;74.20;;;;;;5013751;28;20064;-88
2023/01/10 08:58:29;;;;;;;1.05;0.50;;;10.40;74.20;;;;;;5008935;28;20049;-88
2023/01/10 09:01:15;;;;;;;1.05;0.47;;;10.40;74.70;;;;;;5011998;28;20035;-88
2023/01/10 09:03:59;;;;;;;0.43;0.38;;;10.40;74.20;;;;;;5016956;28;20317;-87
2023/01/10 09:06:44;;;;;;;1.13;0.63;;;10.50;74.30;;;;;;5006147;28;20041;-90
2023/01/10 09:09:29;;;;;;;0.45;0.22;;;10.50;74.30;;;;;;5010100;28;20172;-85
2023/01/10 09:15:17;;;;;;;0.73;0.38;;;10.60;74.40;;;;;;5003751;28;20104;-89
2023/01/10 09:18:05;;;;;;;0.80;0.40;;;10.60;74.30;;;;;;5014533;28;20103;-94
2023/01/10 09:20:50;;;;;;;0.40;0.30;;;10.70;74.50;;;;;;5021755;28;20531;-92
2023/01/10 09:23:34;;;;;;;0.77;0.35;;;10.60;74.90;;;;;;5012463;28;20282;-94
2023/01/10 09:26:19;;;;;;;0.82;0.30;;;10.70;74.50;;;;;;5012886;28;20439;-82
2023/01/10 09:29:05;;;;;;;0.40;0.32;;;10.70;74.50;;;;;;5010447;28;20038;-82
2023/01/10 09:31:49;;;;;;;1.17;0.43;;;10.80;74.60;;;;;;5008320;28;20081;-82
2023/01/10 09:34:34;;;;;;;1.00;0.40;;;10.70;74.50;;;;;;5015434;28;20041;-86
2023/01/10 09:37:19;;;;;;;0.88;0.35;;;10.80;74.70;;;;;;5024241;28;20208;-93
2023/01/10 09:40:04;;;;;;;1.27;1.05;;;10.80;74.70;;;;;;5012728;28;20044;-91
2023/01/10 09:42:48;;;;;;;0.43;0.40;;;10.90;74.90;;;;;;5012144;28;20109;-90
2023/01/10 09:45:36;;;;;;;1.02;0.55;;;10.90;74.90;;;;;;5001723;28;20115;-87
2023/01/10 09:48:51;;;;;;;2.08;0.70;;;11.00;75.10;;;;;;5010324;28;20275;-92
2023/01/10 09:51:37;;;;;;;1.17;0.35;;;11.00;75.10;;;;;;5014263;28;20245;-93
2023/01/10 09:54:29;;;;;;;1.90;0.50;;;11.10;75.20;;;;;;5002562;28;20053;-82
2023/01/10 09:57:18;;;;;;;0.50;0.32;;;11.10;75.20;;;;;;5007768;28;20131;-83
2023/01/10 10:00:06;;;;;;;1.33;0.60;;;11.20;75.30;;;;;;5012314;28;20104;-83
2023/01/10 10:02:52;;;;;;;3.78;0.70;;;11.20;75.20;;;;;;5009336;28;20040;-84
2023/01/10 10:05:37;;;;;;;3.03;0.65;;;11.30;75.40;;;;;;5016853;28;20520;-84
2023/01/10 10:08:22;;;;;;;2.75;0.93;;;11.30;75.40;;;;;;5005306;28;20055;-84
2023/01/10 10:11:49;;;;;;;0.73;0.55;;;11.40;75.50;;;;;;5007749;28;20132;-84
2023/01/10 10:14:43;;;;;;;3.00;0.65;;;11.40;75.60;;;;;;5007392;28;20041;-85
2023/01/10 10:17:48;;;;;;;2.13;0.70;;;11.40;75.40;;;;;;5008967;28;20151;-84
2023/01/10 10:21:10;;;;;;;1.92;0.60;;;11.50;75.60;;;;;;5010723;28;20056;-87
2023/01/10 10:24:23;;;;;;;1.40;0.50;;;11.50;75.70;;;;;;5016612;28;20116;-95
2023/01/10 10:27:21;;;;;;;1.55;0.60;;;11.60;75.80;;;;;;5014077;28;20510;-93
2023/01/10 10:30:36;;;;;;;2.75;1.05;;;11.60;75.70;;;;;;5015497;28;20548;-94
2023/01/10 10:33:51;;;;;;;1.90;0.68;;;11.70;76.00;;;;;;5010109;28;20406;-94
2023/01/10 10:36:50;;;;;;;3.20;0.80;;;11.70;75.90;;;;;;5012470;28;20140;-95
2023/01/10 10:39:40;;;;;;;1.92;0.70;;;11.80;76.00;;;;;;5017389;28;20552;-94
2023/01/10 10:42:38;;;;;;;3.35;1.17;;;11.90;76.20;;;;;;5003910;28;20140;-94
2023/01/10 10:45:38;;;;;;;2.05;0.70;;;11.80;76.10;;;;;;5019189;28;20048;-84
2023/01/10 10:48:39;;;;;;;1.00;0.60;;;11.90;76.30;;;;;;4994630;28;20040;-86
2023/01/10 10:51:30;;;;;;;3.05;0.70;;;12.00;76.50;;;;;;5007240;28;20076;-90
2023/01/10 10:54:15;;;;;;;2.17;1.00;;;12.00;76.40;;;;;;5002825;28;20056;-90
2023/01/10 10:57:00;;;;;;;3.60;0.85;;;12.10;76.60;;;;;;5009365;28;20209;-92
2023/01/10 10:59:47;;;;;;;2.13;1.25;;;12.10;76.60;;;;;;5003204;28;20041;-90
2023/01/10 11:02:42;;;;;;;4.25;0.68;;;12.10;76.60;;;;;;5008010;28;20040;-92
2023/01/10 11:05:35;;;;;;;1.52;0.90;;;12.10;76.70;;;;;;5006317;28;20452;-92
2023/01/10 11:08:22;;;;;;;3.28;1.35;;;12.20;76.90;;;;;;5009084;28;20052;-94
2023/01/10 11:11:35;;;;;;;2.22;0.88;;;12.20;76.90;;;;;;5010152;28;20088;-93
2023/01/10 11:14:50;;;;;;;3.33;0.80;;;12.30;77.10;;;;;;5006114;28;20044;-92
2023/01/10 11:17:39;;;;;;;4.28;1.38;;;12.20;77.00;;;;;;4995696;28;20409;-82
2023/01/10 11:20:24;;;;;;;3.28;1.10;;;12.20;76.90;;;;;;5023049;28;20060;-82
2023/01/10 11:23:09;;;;;;;3.00;1.10;;;12.30;77.10;;;;;;5013524;28;20122;-90
2023/01/10 11:25:54;;;;;;;3.15;1.00;;;12.30;77.10;;;;;;5002651;28;20122;-93
2023/01/10 11:28:39;;;;;;;3.80;0.88;;;12.30;77.20;;;;;;5003569;28;20056;-89
2023/01/10 11:31:28;;;;;;;3.80;1.20;;;12.30;77.20;;;;;;4998496;28;20060;-92
2023/01/10 11:34:29;;;;;;;6.28;1.90;;;12.40;77.40;;;;;;5015977;28;20086;-89
2023/01/10 11:37:21;;;;;;;3.88;0.98;;;12.40;77.40;;;;;;4998882;28;20125;-90
2023/01/10 11:40:22;;;;;;;3.47;1.10;;;12.50;77.50;;;;;;5007520;28;20045;-88
2023/01/10 11:43:40;;;;;;;4.45;1.20;;;12.50;77.50;;;;;;5001457;28;20068;-91
2023/01/10 11:46:25;;;;;;;3.85;1.02;;;12.60;77.70;;;;;;4990197;28;20045;-83
2023/01/10 11:49:18;;;;;;;4.40;1.23;;;12.60;77.60;;;;;;5013210;28;20164;-93
2023/01/10 11:52:11;;;;;;;5.78;1.30;;;12.60;77.60;;;;;;5014504;28;20141;-92
2023/01/10 11:54:59;;;;;;;6.32;1.70;;;12.70;77.80;;;;;;5009987;28;20079;-92
2023/01/10 11:57:45;;;;;;;8.00;1.80;;;12.80;77.90;;;;;;5002240;28;20473;-91
2023/01/10 12:00:38;;;;;;;3.55;1.50;;;12.90;78.00;;;;;;5012377;28;20041;-95
2023/01/10 12:03:35;;;;;;;8.85;1.75;;;13.00;78.20;;;;;;5022689;28;20048;-93
2023/01/10 12:06:21;;;;;;;8.75;2.00;;;13.00;78.20;;;;;;5014968;28;20179;-81
2023/01/10 12:09:35;;;;;;;9.90;2.97;;;13.00;78.20;;;;;;5026308;28;20407;-82
2023/01/10 12:12:27;;;;;;;7.78;2.45;;;13.00;78.40;;;;;;5003370;28;20643;-84
2023/01/10 12:15:30;;;;;;;4.32;2.08;;;13.10;78.50;;;;;;4993509;28;20615;-81
2023/01/10 12:18:18;;;;;;;9.20;2.95;;;13.10;79.10;;;;;;5008547;28;20108;-90
2023/01/10 12:21:03;;;;;;;3.72;1.63;;;13.20;78.70;;;;;;4998937;28;20041;-92
2023/01/10 12:23:49;;;;;;;3.58;1.70;;;13.20;78.50;;;;;;5014996;28;20044;-91
2023/01/10 12:26:34;;;;;;;9.07;2.10;;;13.30;78.60;;;;;;5010934;28;20044;-94
2023/01/10 12:29:41;;;;;;;4.63;1.63;;;13.30;78.60;;;;;;5013210;28;20064;-94
2023/01/10 12:32:35;;;;;;;5.32;1.90;;;13.40;78.70;;;;;;5017154;28;20478;-93
2023/01/10 12:35:30;;;;;;;7.60;1.85;;;13.40;78.60;;;;;;5006680;28;20159;-81
2023/01/10 12:44:51;;;;;;;5.57;1.70;;;13.60;78.70;;;;;;5040767;28;20044;-93
2023/01/10 12:48:16;;;;;;;8.60;1.92;;;13.60;78.70;;;;;;5000690;28;20041;-93
2023/01/10 12:51:06;;;;;;;8.18;2.63;;;13.70;78.70;;;;;;5009534;28;20149;-93
2023/01/10 12:54:02;;;;;;;7.80;1.85;;;13.80;78.60;;;;;;5000411;28;20077;-93
2023/01/10 12:56:47;;;;;;;4.93;1.70;;;13.90;78.70;;;;;;5003918;28;20048;-95
2023/01/10 12:59:41;;;;;;;5.93;1.67;;;14.00;78.60;;;;;;5013613;28;20037;-93
2023/01/10 13:02:37;;;;;;;5.68;2.03;;;14.00;78.50;;;;;;5012863;28;20505;-94
2023/01/10 13:05:24;;;;;;;8.35;2.78;;;14.00;78.50;;;;;;5007792;28;20066;-94
2023/01/10 13:08:13;;;;;;;6.15;1.85;;;14.00;78.50;;;;;;5008189;28;20119;-92
2023/01/10 13:10:59;;;;;;;9.18;2.25;;;14.00;78.50;;;;;;5026090;28;20160;-93
2023/01/10 13:13:52;;;;;;;8.32;2.03;;;14.00;78.60;;;;;;5020317;28;20080;-95
2023/01/10 13:16:51;;;;;;;8.27;1.50;;;14.00;78.70;;;;;;5017709;28;20093;-94
2023/01/10 13:19:41;;;;;;;9.07;2.75;;;14.00;78.70;;;;;;5019808;28;20077;-95
2023/01/10 13:22:26;;;;;;;6.93;2.75;;;14.00;78.70;;;;;;5025621;28;20040;-94
2023/01/10 13:25:22;;;;;;;6.30;1.85;;;14.10;78.90;;;;;;5017222;28;20045;-94
2023/01/10 13:28:21;;;;;;;8.60;2.35;;;14.00;78.70;;;;;;5007739;28;20088;-93
2023/01/10 13:31:20;;;;;;;6.30;2.03;;;14.00;78.70;;;;;;5013889;28;20549;-95
2023/01/10 13:34:12;;;;;;;6.07;2.30;;;14.00;78.70;;;;;;5000341;28;20036;-83
2023/01/10 13:37:09;;;;;;;7.55;2.13;;;14.00;78.70;;;;;;5009795;28;20169;-81
2023/01/10 13:39:59;;;;;;;8.85;2.30;;;14.00;78.80;;;;;;5010210;28;20088;-89
2023/01/10 13:46:07;;;;;;;9.93;2.13;;;14.00;78.80;;;;;;5002127;28;20046;-89
2023/01/10 13:48:51;;;;;;;10.80;2.40;;;14.00;78.90;;;;;;5004014;28;20033;-91
2023/01/10 13:51:38;;;;;;;9.23;1.92;;;14.00;78.90;;;;;;4997396;28;20123;-90
2023/01/10 13:54:27;;;;;;;13.32;2.67;;;14.00;79.50;;;;;;5002449;28;20073;-89
2023/01/10 13:57:49;;;;;;;7.10;2.33;;;14.00;79.10;;;;;;4995389;28;20165;-89
2023/01/10 14:03:43;;;;;;;9.18;2.33;;;13.90;78.90;;;;;;5003860;28;20057;-90
2023/01/10 14:06:28;;;;;;;10.00;2.95;;;13.90;78.90;;;;;;5002940;28;20045;-91
2023/01/10 14:09:12;;;;;;;7.35;2.30;;;13.90;78.90;;;;;;5005574;28;20092;-86
2023/01/10 14:11:58;;;;;;;7.10;1.92;;;13.90;78.90;;;;;;5015770;28;20056;-93
2023/01/10 14:14:51;;;;;;;11.48;3.28;;;13.90;78.90;;;;;;5009908;28;20040;-89
2023/01/10 14:17:36;;;;;;;7.57;2.17;;;13.90;78.90;;;;;;5009402;28;20057;-90
2023/01/10 14:20:23;;;;;;;10.32;2.25;;;13.90;79.40;;;;;;5016082;28;20250;-88
2023/01/10 14:23:20;;;;;;;8.85;2.38;;;13.90;78.90;;;;;;5000781;28;20045;-88
2023/01/10 14:26:13;;;;;;;10.18;2.25;;;13.90;78.90;;;;;;5005670;28;20037;-91
2023/01/10 14:29:12;;;;;;;5.97;2.60;;;13.90;78.90;;;;;;5013859;28;20044;-88
2023/01/10 14:31:58;;;;;;;7.20;2.40;;;13.90;78.90;;;;;;5020835;28;20068;-87
2023/01/10 14:34:45;;;;;;;8.40;2.25;;;13.90;78.80;;;;;;5015105;28;20045;-90
2023/01/10 14:37:41;;;;;;;10.88;2.53;;;14.00;79.00;;;;;;5019910;28;20060;-92
2023/01/10 14:40:40;;;;;;;10.57;3.70;;;13.90;78.80;;;;;;5021002;28;20118;-92
2023/01/10 14:43:31;;;;;;;9.75;2.70;;;13.90;78.80;;;;;;5018278;28;20068;-88
2023/01/10 14:46:36;;;;;;;8.43;2.75;;;14.00;79.00;;;;;;5021388;28;20041;-93
2023/01/10 14:49:32;;;;;;;13.10;3.17;;;13.90;78.70;;;;;;5009557;28;20103;-92
2023/01/10 14:52:20;;;;;;;11.10;2.90;;;14.00;78.80;;;;;;5002158;28;20550;-94
2023/01/10 14:55:20;;;;;;;11.43;3.35;;;14.00;78.80;;;;;;5011087;28;20110;-81
2023/01/10 14:58:05;;;;;;;13.48;3.47;;;14.00;78.80;;;;;;4996115;28;20041;-81
2023/01/10 15:00:52;;;;;;;15.15;2.60;;;14.00;78.70;;;;;;5005776;28;22241;-81
2023/01/10 15:03:45;;;;;;;11.70;3.10;;;13.90;78.50;;;;;;5005347;28;20429;-81
2023/01/10 15:06:50;;;;;;;10.15;3.13;;;14.00;78.70;;;;;;5006591;28;20087;-81
2023/01/10 15:09:35;;;;;;;15.50;3.42;;;13.90;78.50;;;;;;4999512;28;20520;-81